Terminal Aerodrome Forecast
Issued by NWS

Home | Current Version | Previous Version | Text Only | Print | Product List | Glossary On
Versions: 1 2 3 4 5 6 7 8 9 10 11 12 13 14 15 16
000
FTUS43 KAPX 231733
TAFPLN
TAF
KPLN 231733Z 2318/2418 35006KT P6SM FEW060
     FM240000 VRB03KT P6SM FEW250
     FM240500 15004KT P6SM SCT250
     FM240700 15005KT P6SM BKN200
     FM240900 15005KT P6SM SHRA VCTS BKN060CB
     FM241300 19009KT P6SM SHRA VCTS OVC040CB
     FM241500 20010G16KT P6SM BKN060=

USA.gov is the U.S. government's official web portal to all federal, state and local government web resources and services.